createdAt,value
2023-03-02T00:01:33.162Z,25
2023-03-02T00:07:25.971Z,25
2023-03-02T00:13:19.070Z,25
2023-03-02T00:19:11.777Z,24.9
2023-03-02T00:25:03.588Z,24.9
2023-03-02T00:30:56.545Z,24.9
2023-03-02T00:36:49.681Z,24.9
2023-03-02T00:42:41.917Z,24.9
2023-03-02T00:48:34.832Z,24.9
2023-03-02T00:54:12.509Z,24.9
2023-03-02T01:00:05.504Z,24.9
2023-03-02T01:05:59.788Z,24.9
2023-03-02T01:11:52.920Z,24.9
2023-03-02T01:17:46.425Z,24.8
2023-03-02T01:23:39.752Z,24.8
2023-03-02T01:34:54.898Z,24.9
2023-03-02T01:40:49.242Z,24.8
2023-03-02T01:57:57.335Z,24.8
2023-03-02T02:03:50.333Z,24.8
2023-03-02T02:09:43.485Z,24.8
2023-03-02T02:15:37.024Z,24.8
2023-03-02T02:21:29.726Z,24.8
2023-03-02T02:27:07.833Z,24.8
2023-03-02T02:33:01.001Z,24.8
2023-03-02T02:38:54.730Z,24.7
2023-03-02T02:44:46.751Z,24.7
2023-03-02T02:50:08.988Z,24.7
2023-03-02T02:56:01.579Z,24.7
2023-03-02T03:01:39.674Z,24.7
2023-03-02T03:07:16.337Z,24.7
2023-03-02T03:18:31.665Z,24.6
2023-03-02T03:24:24.416Z,24.6
2023-03-02T03:30:17.039Z,24.6
2023-03-02T03:36:11.267Z,24.6
2023-03-02T03:42:04.003Z,24.6
2023-03-02T03:47:58.864Z,24.6
2023-03-02T03:53:53.214Z,24.6
2023-03-02T03:59:46.043Z,24.6
2023-03-02T04:05:08.753Z,24.6
2023-03-02T04:10:46.426Z,24.5
2023-03-02T04:16:22.904Z,24.5
2023-03-02T04:21:45.147Z,24.5
2023-03-02T04:27:22.791Z,24.5
2023-03-02T04:33:16.786Z,24.5
2023-03-02T04:39:08.421Z,24.5
2023-03-02T04:45:01.545Z,24.4
2023-03-02T04:50:57.955Z,24.5
2023-03-02T04:56:50.180Z,24.4
2023-03-02T05:02:45.220Z,24.4
2023-03-02T05:08:37.713Z,24.4
2023-03-02T05:14:29.163Z,24.4
2023-03-02T05:20:22.859Z,24.4
2023-03-02T05:26:15.585Z,24.4
2023-03-02T05:32:08.745Z,24.4
2023-03-02T05:38:02.635Z,24.4
2023-03-02T05:43:55.580Z,24.4
2023-03-02T05:49:48.818Z,24.4
2023-03-02T05:55:26.425Z,24.3
2023-03-02T06:01:04.217Z,24.3
2023-03-02T06:06:41.621Z,24.3
2023-03-02T06:12:18.328Z,24.3
2023-03-02T06:17:56.626Z,24.3
2023-03-02T06:23:33.412Z,24.3
2023-03-02T06:29:25.559Z,24.3
2023-03-02T06:35:03.538Z,24.3
2023-03-02T06:40:40.980Z,24.3
2023-03-02T06:46:19.571Z,24.3
2023-03-02T06:51:56.547Z,24.3
2023-03-02T06:57:34.312Z,24.3
2023-03-02T07:03:13.321Z,24.3
2023-03-02T07:08:51.899Z,24.2
2023-03-02T07:14:32.091Z,24.3
2023-03-02T07:20:09.852Z,24.3
2023-03-02T07:25:47.367Z,24.2
2023-03-02T07:31:24.085Z,24.2
2023-03-02T07:37:17.963Z,24.2
2023-03-02T07:43:10.779Z,24.2
2023-03-02T07:49:03.770Z,24.2
2023-03-02T07:54:41.131Z,24.2
2023-03-02T08:00:33.745Z,24.2
2023-03-02T08:06:26.497Z,24.2
2023-03-02T08:12:20.212Z,24.2
2023-03-02T08:18:12.840Z,24.1
2023-03-02T08:24:05.122Z,24.2
2023-03-02T08:35:35.825Z,24.1
2023-03-02T08:41:29.582Z,24.1
2023-03-02T08:47:23.620Z,24.1
2023-03-02T08:53:16.766Z,24.1
2023-03-02T08:59:09.383Z,24.1
2023-03-02T09:05:03.559Z,24.1
2023-03-02T09:10:56.860Z,24.1
2023-03-02T09:16:49.092Z,24.1
2023-03-02T09:22:41.810Z,24.1
2023-03-02T09:28:34.406Z,24.1
2023-03-02T09:34:27.889Z,24
2023-03-02T09:40:20.960Z,24.1
2023-03-02T09:46:24.593Z,24.1
2023-03-02T09:52:23.086Z,24
2023-03-02T09:58:16.892Z,24
2023-03-02T10:04:25.469Z,24
2023-03-02T10:10:02.426Z,24
2023-03-02T10:15:58.838Z,24
2023-03-02T10:21:56.663Z,23.9
2023-03-02T10:27:52.482Z,23.9
2023-03-02T10:33:30.093Z,23.9
2023-03-02T10:39:23.298Z,23.9
2023-03-02T10:45:16.215Z,23.9
2023-03-02T10:51:15.933Z,23.9
2023-03-02T10:57:18.809Z,23.9
2023-03-02T11:03:11.505Z,23.9
2023-03-02T11:09:06.313Z,23.9
2023-03-02T11:15:00.088Z,23.9
2023-03-02T11:20:37.427Z,23.9
2023-03-02T11:26:30.265Z,23.9
2023-03-02T11:32:09.933Z,23.9
2023-03-02T11:38:13.650Z,23.9
2023-03-02T11:44:11.486Z,23.8
2023-03-02T11:50:12.638Z,23.9
2023-03-02T11:56:13.624Z,23.8
2023-03-02T12:02:09.701Z,23.8
2023-03-02T12:07:32.986Z,23.8
2023-03-02T12:13:26.372Z,23.8
2023-03-02T12:19:20.435Z,23.8
2023-03-02T12:25:13.231Z,23.8
2023-03-02T12:31:05.766Z,23.8
2023-03-02T12:36:59.803Z,23.8
2023-03-02T12:42:53.330Z,23.8
2023-03-02T12:48:49.394Z,23.8
2023-03-02T12:54:44.134Z,23.8
2023-03-02T13:00:37.460Z,23.8
2023-03-02T13:06:30.404Z,23.8
2023-03-02T13:12:27.842Z,23.7
2023-03-02T13:18:20.441Z,23.7
2023-03-02T13:24:12.860Z,23.7
2023-03-02T13:30:06.989Z,23.7
2023-03-02T13:36:00.976Z,23.7
2023-03-02T13:41:53.230Z,23.7
2023-03-02T13:47:47.977Z,23.7
2023-03-02T13:53:56.408Z,23.7
2023-03-02T13:59:47.961Z,23.6
2023-03-02T14:05:42.908Z,23.6
2023-03-02T14:11:36.879Z,23.6
2023-03-02T14:17:14.152Z,23.6
2023-03-02T14:23:07.619Z,23.6
2023-03-02T14:29:06.322Z,23.6
2023-03-02T14:34:59.751Z,23.6
2023-03-02T14:40:52.378Z,23.6
2023-03-02T14:46:56.658Z,23.6
2023-03-02T14:52:49.194Z,23.6
2023-03-02T14:58:44.464Z,23.3
2023-03-02T15:04:54.921Z,23.1
2023-03-02T15:11:03.390Z,23.1
2023-03-02T15:16:40.495Z,23.1
2023-03-02T15:22:33.578Z,23.1
2023-03-02T15:28:29.588Z,23.2
2023-03-02T15:34:23.319Z,23.2
2023-03-02T15:40:16.143Z,23.2
2023-03-02T15:46:10.038Z,23.2
2023-03-02T15:52:03.827Z,23.3
2023-03-02T15:58:06.568Z,23.3
2023-03-02T16:03:45.844Z,23.3
2023-03-02T16:09:40.041Z,23.3
2023-03-02T16:15:33.145Z,23.3
2023-03-02T16:21:25.683Z,23.3
2023-03-02T16:27:19.664Z,23.3
2023-03-02T16:33:13.354Z,23.3
2023-03-02T16:39:06.550Z,23.3
2023-03-02T16:44:59.775Z,23.3
2023-03-02T16:50:38.361Z,23.3
2023-03-02T16:56:31.941Z,23.3
2023-03-02T17:02:25.675Z,23.3
2023-03-02T17:08:23.498Z,23.3
2023-03-02T17:14:16.988Z,23.2
2023-03-02T17:20:10.367Z,23.3
2023-03-02T17:26:03.122Z,23.3
2023-03-02T17:32:11.199Z,23.2
2023-03-02T17:38:03.757Z,23.3
2023-03-02T17:44:00.362Z,23.2
2023-03-02T17:49:53.115Z,23.2
2023-03-02T17:55:46.289Z,23.2
2023-03-02T18:01:46.999Z,23.2
2023-03-02T18:07:43.227Z,23.2
2023-03-02T18:13:36.737Z,23.2
2023-03-02T18:19:30.033Z,23.2
2023-03-02T18:25:07.319Z,23.1
2023-03-02T18:31:01.815Z,23.2
2023-03-02T18:36:55.002Z,23.1
2023-03-02T18:42:31.922Z,23.1
2023-03-02T18:48:25.570Z,23.1
2023-03-02T18:54:18.881Z,23.1
2023-03-02T19:00:11.216Z,23.1
2023-03-02T19:06:04.691Z,23.1
2023-03-02T19:12:00.256Z,23.1
2023-03-02T19:17:39.684Z,23.1
2023-03-02T19:23:32.532Z,23.1
2023-03-02T19:29:25.844Z,23.1
2023-03-02T19:35:19.142Z,23.1
2023-03-02T19:40:56.696Z,23.1
2023-03-02T19:46:50.399Z,23.1
2023-03-02T19:52:44.458Z,23.1
2023-03-02T19:58:37.566Z,23.1
2023-03-02T20:04:33.567Z,23.1
2023-03-02T20:10:11.251Z,23
2023-03-02T20:16:13.352Z,23.1
2023-03-02T20:22:08.558Z,23
2023-03-02T20:28:01.176Z,23
2023-03-02T20:33:54.303Z,23
2023-03-02T20:39:51.767Z,23
2023-03-02T20:45:44.888Z,22.9
2023-03-02T20:51:38.691Z,22.9
2023-03-02T20:57:32.230Z,22.9
2023-03-02T21:03:09.812Z,22.9
2023-03-02T21:09:05.038Z,22.9
2023-03-02T21:15:01.300Z,22.9
2023-03-02T21:20:55.714Z,22.9
2023-03-02T21:26:47.926Z,22.9
2023-03-02T21:32:41.055Z,22.9
2023-03-02T21:38:35.920Z,22.9
2023-03-02T21:44:29.956Z,22.9
2023-03-02T21:50:23.386Z,22.9
2023-03-02T21:56:03.066Z,22.9
2023-03-02T22:01:57.043Z,22.8
2023-03-02T22:07:49.517Z,22.9
2023-03-02T22:13:42.677Z,22.8
2023-03-02T22:19:36.970Z,22.8
2023-03-02T22:25:30.696Z,22.8
2023-03-02T22:31:22.351Z,22.8
2023-03-02T22:37:15.941Z,22.8
2023-03-02T22:43:09.684Z,22.8
2023-03-02T22:49:03.289Z,22.8
2023-03-02T22:54:56.885Z,22.8
2023-03-02T23:00:51.016Z,22.8
2023-03-02T23:06:44.275Z,22.8
2023-03-02T23:12:37.186Z,22.8
2023-03-02T23:18:32.206Z,22.8
2023-03-02T23:24:24.489Z,22.8
2023-03-02T23:30:17.021Z,22.8
2023-03-02T23:36:10.546Z,22.7
2023-03-02T23:42:02.521Z,22.8
2023-03-02T23:47:54.881Z,22.7
2023-03-02T23:53:47.768Z,22.7
2023-03-02T23:59:41.976Z,22.7
